Time;durP1;ratioP1;P1;durP2;ratioP2;P2;SDS_P1;SDS_P2;PMS_P1;PMS_P2;Temp;Humidity;BMP_temperature;BMP_pressure;BME280_temperature;BME280_humidity;BME280_pressure;Samples;Min_cycle;Max_cycle;Signal;HPM_P1;HPM_P2
2023/07/29 06:20:44;;;;;;;;;;;;;;;;;;5008464;23;19929;-84
2023/07/29 06:23:09;;;;;;;;;;;;;;;;;;4996706;28;19917;-85
2023/07/29 08:15:55;;;;;;;;;;;;;;;;;;4930538;29;19923;-87
2023/07/29 08:18:21;;;;;;;;;;;;;;;;;;4940804;29;19925;-85
2023/07/29 08:20:59;;;;;;;;;;;;;;;;;;4940493;29;19915;-86
2023/07/29 08:23:25;;;;;;;;;;;;;;;;;;4940314;29;20296;-86
2023/07/29 08:25:53;;;;;;;;;;;;;;;;;;4938896;29;19970;-88
2023/07/29 08:28:19;;;;;;;;;;;;;;;;;;4931665;29;19914;-88
2023/07/29 08:30:44;;;;;;;;;;;;;;;;;;4935288;29;20274;-89
2023/07/29 08:33:10;;;;;;;;;;;;;;;;;;4922384;29;19938;-91
2023/07/29 08:35:35;;;;;;;;;;;;;;;;;;4933990;29;19966;-93
2023/07/29 08:38:01;;;;;;;;;;;;;;;;;;4941154;29;19918;-87
2023/07/29 08:40:29;;;;;;;;;;;;;;;;;;4939002;29;19915;-88
2023/07/29 08:42:56;;;;;;;;;;;;;;;;;;4938925;29;20357;-88
2023/07/29 08:45:22;;;;;;;;;;;;;;;;;;4920461;29;19921;-87
2023/07/29 08:47:48;;;;;;;;;;;;;;;;;;4919884;29;20010;-88
2023/07/29 08:50:14;;;;;;;;;;;;;;;;;;4919543;29;19969;-89
2023/07/29 08:52:40;;;;;;;;;;;;;;;;;;4920672;29;19915;-89
2023/07/29 08:55:06;;;;;;;;;;;;;;;;;;4921229;29;20392;-88
2023/07/29 08:57:31;;;;;;;;;;;;;;;;;;4919826;29;19949;-89
2023/07/29 08:59:57;;;;;;;;;;;;;;;;;;4921118;29;20421;-88
2023/07/29 09:02:23;;;;;;;;;;;;;;;;;;4921314;29;19922;-89
2023/07/29 09:04:48;;;;;;;;;;;;;;;;;;4919526;29;20064;-88
2023/07/29 09:07:13;;;;;;;;;;;;;;;;;;4920897;29;19922;-89
2023/07/29 09:09:39;;;;;;;;;;;;;;;;;;4921321;29;20354;-88
2023/07/29 09:12:04;;;;;;;;;;;;;;;;;;4920698;29;19919;-88
2023/07/29 09:14:30;;;;;;;;;;;;;;;;;;4921129;29;19915;-89
2023/07/29 09:16:55;;;;;;;;;;;;;;;;;;4932402;29;19918;-89
2023/07/29 09:19:20;;;;;;;;;;;;;;;;;;4923264;29;19978;-88
2023/07/29 09:21:46;;;;;;;;;;;;;;;;;;4939971;29;19938;-90
2023/07/29 09:24:15;;;;;;;;;;;;;;;;;;4947136;28;20378;-89
2023/07/29 09:26:48;;;;;;;;;;;;;;;;;;4939824;29;19914;-89
2023/07/29 09:29:13;;;;;;;;;;;;;;;;;;4940587;29;19921;-89
2023/07/29 09:31:38;;;;;;;;;;;;;;;;;;4954539;29;19911;-89
2023/07/29 09:34:05;;;;;;;;;;;;;;;;;;4922051;29;20342;-89
2023/07/29 09:36:31;;;;;;;;;;;;;;;;;;4921943;29;19915;-89
2023/07/29 09:38:56;;;;;;;;;;;;;;;;;;4939278;29;19934;-89
2023/07/29 09:41:32;;;;;;;;;;;;;;;;;;4935350;29;19914;-89
2023/07/29 09:43:58;;;;;;;;;;;;;;;;;;4958335;29;19917;-90
2023/07/29 09:46:27;;;;;;;;;;;;;;;;;;4958123;29;19918;-90
2023/07/29 09:48:54;;;;;;;;;;;;;;;;;;4940572;29;19944;-89
2023/07/29 09:51:19;;;;;;;;;;;;;;;;;;4940289;28;20373;-91
2023/07/29 09:53:46;;;;;;;;;;;;;;;;;;4956376;29;19921;-90
2023/07/29 09:56:12;;;;;;;;;;;;;;;;;;4938768;29;19914;-92
2023/07/29 09:58:38;;;;;;;;;;;;;;;;;;4923948;29;19915;-93
2023/07/29 10:01:06;;;;;;;;;;;;;;;;;;4924557;29;19964;-95
2023/07/29 10:03:35;;;;;;;;;;;;;;;;;;4924995;29;19915;-93
2023/07/29 10:06:05;;;;;;;;;;;;;;;;;;4923447;29;19915;-90
2023/07/29 10:08:39;;;;;;;;;;;;;;;;;;4940504;29;19946;-85
2023/07/29 10:11:06;;;;;;;;;;;;;;;;;;4939822;29;20313;-92
2023/07/29 10:13:32;;;;;;;;;;;;;;;;;;4905525;29;19949;-92
2023/07/29 10:15:57;;;;;;;;;;;;;;;;;;4924317;29;20008;-92
2023/07/29 10:18:23;;;;;;;;;;;;;;;;;;4923416;29;19915;-94
2023/07/29 10:20:52;;;;;;;;;;;;;;;;;;4944132;29;20002;-94
2023/07/29 10:23:18;;;;;;;;;;;;;;;;;;4923617;29;19919;-94
2023/07/29 10:25:46;;;;;;;;;;;;;;;;;;4923760;29;20394;-93
2023/07/29 10:28:12;;;;;;;;;;;;;;;;;;4922876;29;19939;-93
2023/07/29 10:30:38;;;;;;;;;;;;;;;;;;4942667;29;20365;-93
2023/07/29 10:33:07;;;;;;;;;;;;;;;;;;4942031;29;19914;-94
2023/07/29 10:35:33;;;;;;;;;;;;;;;;;;4925752;29;19954;-96
2023/07/29 10:37:59;;;;;;;;;;;;;;;;;;4943534;29;19935;-91
2023/07/29 10:40:24;;;;;;;;;;;;;;;;;;4944537;29;19978;-92
2023/07/29 10:43:01;;;;;;;;;;;;;;;;;;4945180;28;19907;-95
2023/07/29 10:45:35;;;;;;;;;;;;;;;;;;4942574;29;19921;-90
2023/07/29 10:48:04;;;;;;;;;;;;;;;;;;4940062;29;20263;-85
2023/07/29 10:50:30;;;;;;;;;;;;;;;;;;4945441;29;20270;-89
2023/07/29 10:52:56;;;;;;;;;;;;;;;;;;4939248;29;19919;-90
2023/07/29 10:55:27;;;;;;;;;;;;;;;;;;4928312;29;19921;-90
2023/07/29 10:58:03;;;;;;;;;;;;;;;;;;4950225;29;19914;-95
2023/07/29 11:00:30;;;;;;;;;;;;;;;;;;4933014;29;19943;-93
2023/07/29 11:03:01;;;;;;;;;;;;;;;;;;4945585;29;19946;-91
2023/07/29 11:05:26;;;;;;;;;;;;;;;;;;4940537;29;19915;-93
2023/07/29 11:07:51;;;;;;;;;;;;;;;;;;4927820;29;19914;-92
2023/07/29 11:10:17;;;;;;;;;;;;;;;;;;4931895;29;19921;-90
2023/07/29 11:12:51;;;;;;;;;;;;;;;;;;4923292;29;19937;-91
2023/07/29 11:15:18;;;;;;;;;;;;;;;;;;4938870;29;19918;-90
2023/07/29 11:17:44;;;;;;;;;;;;;;;;;;4921055;29;19918;-90
2023/07/29 11:20:10;;;;;;;;;;;;;;;;;;4920626;29;19922;-91
2023/07/29 11:22:36;;;;;;;;;;;;;;;;;;4920827;29;19950;-91
2023/07/29 11:25:01;;;;;;;;;;;;;;;;;;4937773;29;19922;-90
2023/07/29 11:27:27;;;;;;;;;;;;;;;;;;4937350;29;19915;-90
2023/07/29 11:29:59;;;;;;;;;;;;;;;;;;4937905;29;19915;-90
2023/07/29 11:32:25;;;;;;;;;;;;;;;;;;4936975;29;19918;-89
2023/07/29 11:34:50;;;;;;;;;;;;;;;;;;4936671;29;19921;-90
2023/07/29 11:37:16;;;;;;;;;;;;;;;;;;4937240;29;19950;-89
2023/07/29 11:39:42;;;;;;;;;;;;;;;;;;4936767;29;19915;-90
2023/07/29 11:42:10;;;;;;;;;;;;;;;;;;4936901;29;20020;-90
2023/07/29 11:44:36;;;;;;;;;;;;;;;;;;4936787;29;19915;-89
2023/07/29 11:47:01;;;;;;;;;;;;;;;;;;4936866;29;19922;-90
2023/07/29 11:49:27;;;;;;;;;;;;;;;;;;4936520;29;19915;-90
2023/07/29 11:51:52;;;;;;;;;;;;;;;;;;4936542;29;19918;-89
2023/07/29 11:54:21;;;;;;;;;;;;;;;;;;4936441;29;19914;-90
2023/07/29 11:56:47;;;;;;;;;;;;;;;;;;4936930;29;19921;-89
2023/07/29 11:59:12;;;;;;;;;;;;;;;;;;4921050;29;19915;-90
2023/07/29 12:01:38;;;;;;;;;;;;;;;;;;4944459;29;20390;-92
2023/07/29 12:04:04;;;;;;;;;;;;;;;;;;4920057;29;19970;-90
2023/07/29 12:06:31;;;;;;;;;;;;;;;;;;4936794;29;20366;-89
2023/07/29 12:08:56;;;;;;;;;;;;;;;;;;4919552;29;19966;-89
2023/07/29 12:11:22;;;;;;;;;;;;;;;;;;4936537;29;19911;-92
2023/07/29 12:13:47;;;;;;;;;;;;;;;;;;4936471;29;19914;-91
2023/07/29 12:16:16;;;;;;;;;;;;;;;;;;4936605;29;19919;-92
2023/07/29 12:18:41;;;;;;;;;;;;;;;;;;4936587;29;20398;-90
2023/07/29 12:21:07;;;;;;;;;;;;;;;;;;4936866;29;19961;-92
2023/07/29 12:23:32;;;;;;;;;;;;;;;;;;4919547;29;19985;-91
2023/07/29 12:25:58;;;;;;;;;;;;;;;;;;4919820;29;19962;-93
2023/07/29 12:28:24;;;;;;;;;;;;;;;;;;4937189;29;19921;-90
2023/07/29 12:30:53;;;;;;;;;;;;;;;;;;4919795;29;19954;-91
2023/07/29 12:33:32;;;;;;;;;;;;;;;;;;4939521;29;20001;-93
2023/07/29 12:35:57;;;;;;;;;;;;;;;;;;4940309;29;19915;-93
2023/07/29 12:38:22;;;;;;;;;;;;;;;;;;4923033;29;20408;-89
2023/07/29 12:40:48;;;;;;;;;;;;;;;;;;4940087;29;19997;-93
2023/07/29 12:43:13;;;;;;;;;;;;;;;;;;4922820;29;19949;-90
2023/07/29 12:45:41;;;;;;;;;;;;;;;;;;4939964;29;19919;-95
2023/07/29 12:48:06;;;;;;;;;;;;;;;;;;4939973;29;19919;-92
2023/07/29 12:50:32;;;;;;;;;;;;;;;;;;4939987;29;19986;-94
2023/07/29 12:52:57;;;;;;;;;;;;;;;;;;4939769;29;19910;-93
2023/07/29 12:55:22;;;;;;;;;;;;;;;;;;4939648;29;19915;-92
2023/07/29 12:57:48;;;;;;;;;;;;;;;;;;4939558;29;19922;-89
2023/07/29 13:00:13;;;;;;;;;;;;;;;;;;4939566;29;20406;-93
2023/07/29 13:02:38;;;;;;;;;;;;;;;;;;4939437;29;19918;-92
2023/07/29 13:05:04;;;;;;;;;;;;;;;;;;4939473;29;19918;-90
2023/07/29 13:07:29;;;;;;;;;;;;;;;;;;4939926;29;19969;-90
2023/07/29 13:09:55;;;;;;;;;;;;;;;;;;4922324;29;19915;-91
2023/07/29 13:12:20;;;;;;;;;;;;;;;;;;4939333;29;19938;-90
2023/07/29 13:14:45;;;;;;;;;;;;;;;;;;4939665;29;19914;-91
2023/07/29 13:17:10;;;;;;;;;;;;;;;;;;4939278;29;20267;-94
2023/07/29 13:19:36;;;;;;;;;;;;;;;;;;4939970;29;19921;-92
2023/07/29 13:22:02;;;;;;;;;;;;;;;;;;4940027;29;19915;-94
2023/07/29 13:24:27;;;;;;;;;;;;;;;;;;4940053;29;19950;-92
2023/07/29 13:26:52;;;;;;;;;;;;;;;;;;4940438;29;19914;-92
2023/07/29 13:29:18;;;;;;;;;;;;;;;;;;4940419;29;19946;-93
2023/07/29 13:31:43;;;;;;;;;;;;;;;;;;4923176;29;19922;-90
2023/07/29 13:34:08;;;;;;;;;;;;;;;;;;4940136;29;19938;-91
2023/07/29 13:36:34;;;;;;;;;;;;;;;;;;4923104;29;20298;-95
2023/07/29 13:38:59;;;;;;;;;;;;;;;;;;4940668;29;20017;-95
2023/07/29 13:41:24;;;;;;;;;;;;;;;;;;4922266;29;19958;-92
2023/07/29 13:43:50;;;;;;;;;;;;;;;;;;4921576;29;19911;-91
2023/07/29 13:46:15;;;;;;;;;;;;;;;;;;4921930;29;20365;-91
2023/07/29 13:48:40;;;;;;;;;;;;;;;;;;4938959;29;19915;-91
2023/07/29 13:51:06;;;;;;;;;;;;;;;;;;4938744;29;19921;-91
2023/07/29 13:53:31;;;;;;;;;;;;;;;;;;4921633;29;20384;-92
2023/07/29 13:55:56;;;;;;;;;;;;;;;;;;4921479;29;19970;-92
2023/07/29 13:58:22;;;;;;;;;;;;;;;;;;4921216;29;20285;-93
2023/07/29 14:00:47;;;;;;;;;;;;;;;;;;4938733;29;19915;-86
2023/07/29 14:03:12;;;;;;;;;;;;;;;;;;4938373;29;19937;-89
2023/07/29 14:05:38;;;;;;;;;;;;;;;;;;4938304;29;20277;-88
2023/07/29 14:08:03;;;;;;;;;;;;;;;;;;4938031;29;20429;-88
2023/07/29 14:10:28;;;;;;;;;;;;;;;;;;4938245;29;19914;-88
2023/07/29 14:12:54;;;;;;;;;;;;;;;;;;4937950;29;19919;-88
2023/07/29 14:15:19;;;;;;;;;;;;;;;;;;4937942;29;19925;-88
2023/07/29 17:43:14;;;;;;;;;;;;;;;;;;5292442;23;19922;-90
2023/07/29 17:45:41;;;;;;;;;;;;;;;;;;4991630;28;19957;-86
2023/07/29 17:48:06;;;;;;;;;;;;;;;;;;5002417;28;19938;-87
2023/07/29 17:50:32;;;;;;;;;;;;;;;;;;5008223;28;19918;-89
2023/07/29 17:52:58;;;;;;;;;;;;;;;;;;5003126;28;19913;-89
2023/07/29 17:55:23;;;;;;;;;;;;;;;;;;5005684;28;20457;-88
2023/07/29 17:57:48;;;;;;;;;;;;;;;;;;4988326;28;19917;-88
2023/07/29 18:00:14;;;;;;;;;;;;;;;;;;5008515;28;19959;-88
2023/07/29 18:02:39;;;;;;;;;;;;;;;;;;4998643;28;20345;-88
2023/07/29 18:05:05;;;;;;;;;;;;;;;;;;4987657;28;20364;-88
2023/07/29 18:07:30;;;;;;;;;;;;;;;;;;4986606;28;19904;-91
2023/07/29 18:09:55;;;;;;;;;;;;;;;;;;5002078;28;19961;-93
2023/07/29 18:12:21;;;;;;;;;;;;;;;;;;4998057;28;19918;-92
2023/07/29 18:14:47;;;;;;;;;;;;;;;;;;4997925;28;19920;-93
2023/07/29 18:17:13;;;;;;;;;;;;;;;;;;4997190;28;20257;-95
2023/07/29 18:19:41;;;;;;;;;;;;;;;;;;4996957;28;19918;-89
2023/07/29 18:22:06;;;;;;;;;;;;;;;;;;4996518;28;19937;-90
2023/07/29 18:24:32;;;;;;;;;;;;;;;;;;4978516;28;19965;-92
2023/07/29 18:26:57;;;;;;;;;;;;;;;;;;4981278;28;20276;-96
2023/07/29 18:29:22;;;;;;;;;;;;;;;;;;4996277;28;20408;-86
2023/07/29 18:31:48;;;;;;;;;;;;;;;;;;4998813;28;19924;-92
2023/07/29 18:34:13;;;;;;;;;;;;;;;;;;4981285;28;19929;-90
2023/07/29 18:36:38;;;;;;;;;;;;;;;;;;4979414;28;19918;-88
2023/07/29 18:39:05;;;;;;;;;;;;;;;;;;4977970;28;19961;-89
2023/07/29 18:41:32;;;;;;;;;;;;;;;;;;4999143;28;19921;-93
2023/07/29 18:43:57;;;;;;;;;;;;;;;;;;4982245;28;19917;-90
2023/07/29 18:46:27;;;;;;;;;;;;;;;;;;4995652;28;19913;-95
2023/07/29 18:48:53;;;;;;;;;;;;;;;;;;4995567;28;19935;-83
2023/07/29 18:51:18;;;;;;;;;;;;;;;;;;4995495;28;20408;-84
2023/07/29 18:53:43;;;;;;;;;;;;;;;;;;4995241;28;19959;-83
2023/07/29 18:56:09;;;;;;;;;;;;;;;;;;4994979;28;19964;-85
2023/07/29 18:58:34;;;;;;;;;;;;;;;;;;4995235;28;19913;-81
2023/07/29 19:00:59;;;;;;;;;;;;;;;;;;4994860;28;20403;-82
2023/07/29 19:03:24;;;;;;;;;;;;;;;;;;4995036;28;19976;-81
2023/07/29 19:05:54;;;;;;;;;;;;;;;;;;4994809;28;19918;-82
2023/07/29 19:08:19;;;;;;;;;;;;;;;;;;4994796;28;20036;-81
2023/07/29 19:10:44;;;;;;;;;;;;;;;;;;4994904;28;20380;-81
2023/07/29 19:13:10;;;;;;;;;;;;;;;;;;4995132;28;20000;-80
2023/07/29 19:15:36;;;;;;;;;;;;;;;;;;4995251;28;19920;-82
2023/07/29 19:18:02;;;;;;;;;;;;;;;;;;4995011;28;19910;-82
2023/07/29 19:20:27;;;;;;;;;;;;;;;;;;4994738;28;20287;-81
2023/07/29 19:22:52;;;;;;;;;;;;;;;;;;4994825;28;19913;-86
2023/07/29 19:25:18;;;;;;;;;;;;;;;;;;4997613;28;19964;-81
2023/07/29 19:27:43;;;;;;;;;;;;;;;;;;4995379;28;19960;-81
2023/07/29 19:30:09;;;;;;;;;;;;;;;;;;4994865;28;19913;-81
2023/07/29 19:32:34;;;;;;;;;;;;;;;;;;4994826;28;19913;-81
2023/07/29 19:35:00;;;;;;;;;;;;;;;;;;4995177;28;19914;-83
2023/07/29 19:37:25;;;;;;;;;;;;;;;;;;4977750;28;19914;-80
2023/07/29 19:39:51;;;;;;;;;;;;;;;;;;4994655;28;19917;-80
2023/07/29 19:42:16;;;;;;;;;;;;;;;;;;4994140;28;19917;-80
2023/07/29 19:44:41;;;;;;;;;;;;;;;;;;4994933;28;19940;-81
2023/07/29 19:47:08;;;;;;;;;;;;;;;;;;4994901;28;19914;-80
2023/07/29 19:49:34;;;;;;;;;;;;;;;;;;4994735;28;20328;-80
2023/07/29 19:52:00;;;;;;;;;;;;;;;;;;4994666;28;19968;-81
2023/07/29 19:54:29;;;;;;;;;;;;;;;;;;4976905;28;20320;-81
2023/07/29 19:56:54;;;;;;;;;;;;;;;;;;4994741;28;20012;-80
2023/07/29 19:59:20;;;;;;;;;;;;;;;;;;4994446;28;19961;-83
2023/07/29 20:01:45;;;;;;;;;;;;;;;;;;4994463;28;19921;-80
2023/07/29 20:04:10;;;;;;;;;;;;;;;;;;4994538;28;19913;-80
2023/07/29 20:06:36;;;;;;;;;;;;;;;;;;4994222;28;19913;-79
2023/07/29 20:09:01;;;;;;;;;;;;;;;;;;4994336;28;19913;-83
2023/07/29 20:11:27;;;;;;;;;;;;;;;;;;4994305;28;19920;-79
2023/07/29 20:13:52;;;;;;;;;;;;;;;;;;4994417;28;19968;-80
2023/07/29 20:16:17;;;;;;;;;;;;;;;;;;4994204;28;20376;-87
2023/07/29 20:18:43;;;;;;;;;;;;;;;;;;4994409;28;19913;-81
2023/07/29 20:21:08;;;;;;;;;;;;;;;;;;4994313;28;19925;-80
2023/07/29 20:23:33;;;;;;;;;;;;;;;;;;4994339;28;19914;-80
2023/07/29 20:25:59;;;;;;;;;;;;;;;;;;4994401;28;19920;-81
2023/07/29 20:28:24;;;;;;;;;;;;;;;;;;4994262;28;19914;-80
2023/07/29 20:30:56;;;;;;;;;;;;;;;;;;4994299;28;20368;-80
2023/07/29 20:33:22;;;;;;;;;;;;;;;;;;4994065;28;19921;-80
2023/07/29 20:35:54;;;;;;;;;;;;;;;;;;4993955;28;19914;-86
2023/07/29 20:38:19;;;;;;;;;;;;;;;;;;4994776;28;19924;-80
2023/07/29 20:40:48;;;;;;;;;;;;;;;;;;4994230;28;19917;-80
2023/07/29 20:43:13;;;;;;;;;;;;;;;;;;4994003;28;19929;-80
2023/07/29 20:45:39;;;;;;;;;;;;;;;;;;4993780;28;19918;-81
2023/07/29 20:48:04;;;;;;;;;;;;;;;;;;4994148;28;19914;-80
2023/07/29 20:50:29;;;;;;;;;;;;;;;;;;4994003;28;19914;-79
2023/07/29 20:52:55;;;;;;;;;;;;;;;;;;4994596;28;19913;-79
2023/07/29 20:55:20;;;;;;;;;;;;;;;;;;4997639;28;20007;-79
2023/07/29 20:57:45;;;;;;;;;;;;;;;;;;4997333;28;20072;-79
2023/07/29 21:00:11;;;;;;;;;;;;;;;;;;4979887;28;19980;-79
2023/07/29 21:02:36;;;;;;;;;;;;;;;;;;4997468;28;19914;-79
2023/07/29 21:05:04;;;;;;;;;;;;;;;;;;4997310;28;20352;-78
2023/07/29 21:07:29;;;;;;;;;;;;;;;;;;4979580;28;20277;-79
2023/07/29 21:09:54;;;;;;;;;;;;;;;;;;4997242;28;19920;-79
2023/07/29 21:12:20;;;;;;;;;;;;;;;;;;4997051;28;19913;-85
2023/07/29 21:14:45;;;;;;;;;;;;;;;;;;4997199;28;19917;-79
2023/07/29 21:17:10;;;;;;;;;;;;;;;;;;4996926;28;20030;-79
2023/07/29 21:19:36;;;;;;;;;;;;;;;;;;4996894;28;19984;-85
2023/07/29 21:22:01;;;;;;;;;;;;;;;;;;4996754;28;19960;-79
2023/07/29 21:24:26;;;;;;;;;;;;;;;;;;4996909;28;19960;-79
2023/07/29 21:26:51;;;;;;;;;;;;;;;;;;4996912;28;19917;-79
2023/07/29 21:29:17;;;;;;;;;;;;;;;;;;4997038;28;19913;-79
2023/07/29 21:31:42;;;;;;;;;;;;;;;;;;4996732;28;19914;-79
2023/07/29 21:34:07;;;;;;;;;;;;;;;;;;4996761;28;19913;-79
2023/07/29 21:36:33;;;;;;;;;;;;;;;;;;4996525;28;19914;-86
2023/07/29 21:38:58;;;;;;;;;;;;;;;;;;4996650;28;19918;-81
2023/07/29 21:41:24;;;;;;;;;;;;;;;;;;4996528;28;19920;-79
2023/07/29 21:43:49;;;;;;;;;;;;;;;;;;4996282;28;19925;-80
2023/07/29 21:46:15;;;;;;;;;;;;;;;;;;4996531;28;19968;-87
2023/07/29 21:48:41;;;;;;;;;;;;;;;;;;4979066;28;19964;-79
2023/07/29 21:51:06;;;;;;;;;;;;;;;;;;4996456;28;19921;-81
2023/07/29 21:53:31;;;;;;;;;;;;;;;;;;4996366;28;19920;-81
